Colman, South Dakota
Current Conditions -  °F | °C
As of 8:30 PM on Wednesday 17 Dec 2014 (Local Time) from KMDS Reporting Station
Clear Clear  
Wind Chill: -4°   Ceiling: Unl
Heat Index:   Visibility: 10mi
Dew Point:   Wind: 8mph
Humidity: 100%   Direction: 70°ENE
Pressure: 30.22"   Gusts: NA
Location:  43.98°N, 96.81°W
Report Text: KMDS 180230Z AUTO 07007KT 10SM CLR M13/M13 A3022 RMK AO2
Loading
Personal Weather Stations






























Interactive Weather Map New forecast layout! Learn more

10-Day Weather Forecast

Advertisements
Track Severe Weather on mobile